ALV weather

Public forecast

Using degrees Celsius for public forecast. Weather courtesy of forecast.io.

Closest aviation weather report (METAR) to Andorra la Vella Heliport

Report is more than 6 hours old.

Closest report is Pirineus - la Seu d'Urgel Airport, 11.7 nm (21.7 km) SSW. Retrieved 2020/08/10 17:00 UTC (1 day ago):

LESU 101700Z 35003KT 9999 FEW060 26/15 Q1017

Closest aviation forecast (TAF) to Andorra la Vella Heliport

Forecast is more than 12 hours old.

Closest forecast is Pirineus - la Seu d'Urgel Airport, 11.7 nm (21.7 km) SSW. Retrieved 2020/08/10 15:00 UTC (1 day ago):

TAF LESU 101400Z 1015/1115 VRB04KT 9999 SCT070 TX33/1115Z TN18/1105Z PROB40 TEMPO 1015/1022 VRB15G25KT TSRA FEW060CB BKN070